Time;durP1;ratioP1;P1;durP2;ratioP2;P2;SDS_P1;SDS_P2;PMS_P1;PMS_P2;Temp;Humidity;BMP_temperature;BMP_pressure;BME280_temperature;BME280_humidity;BME280_pressure;Samples;Min_cycle;Max_cycle;Signal;HPM_P1;HPM_P2
2022/11/30 00:01:40;;;;;;;62.88;30.58;;;;;;;6.51;90.03;100954.13;10452877;28;20076;-79
2022/11/30 00:06:43;;;;;;;61.83;28.55;;;;;;;6.48;89.89;100956.97;10508946;28;20443;-80
2022/11/30 00:11:47;;;;;;;60.38;29.33;;;;;;;6.51;89.96;100955.00;10477750;28;20044;-80
2022/11/30 00:16:50;;;;;;;63.53;29.98;;;;;;;6.49;90.04;100951.53;10450504;28;20140;-80
2022/11/30 00:21:53;;;;;;;64.63;29.15;;;;;;;6.33;90.15;100948.84;10497374;28;20044;-79
2022/11/30 00:26:57;;;;;;;61.42;28.70;;;;;;;6.29;89.95;100952.63;10483921;28;20116;-80
2022/11/30 00:32:00;;;;;;;63.85;29.67;;;;;;;6.21;90.17;100957.53;10485286;28;20048;-79
2022/11/30 00:37:02;;;;;;;68.43;29.17;;;;;;;6.35;89.96;100946.97;10490170;28;20115;-79
2022/11/30 00:42:07;;;;;;;68.75;30.38;;;;;;;6.42;89.75;100952.84;10458388;28;20151;-79
2022/11/30 00:47:10;;;;;;;69.68;30.38;;;;;;;6.26;89.31;100960.81;10473513;28;20076;-78
2022/11/30 00:52:13;;;;;;;68.68;30.83;;;;;;;5.68;90.80;100964.75;10495763;28;20472;-80
2022/11/30 00:57:17;;;;;;;66.07;29.30;;;;;;;6.24;90.30;100964.50;10491410;28;20112;-78
2022/11/30 01:02:20;;;;;;;73.63;29.67;;;;;;;6.38;89.77;100970.81;10490641;28;20075;-79
2022/11/30 01:07:22;;;;;;;74.35;29.20;;;;;;;6.48;89.29;100957.84;10459544;28;20037;-81
2022/11/30 01:12:27;;;;;;;70.28;29.85;;;;;;;6.50;89.56;100965.75;10492391;28;20049;-79
2022/11/30 01:17:29;;;;;;;70.70;29.98;;;;;;;6.28;89.15;100964.25;10498518;28;20406;-81
2022/11/30 01:22:32;;;;;;;74.03;30.58;;;;;;;6.36;89.13;100956.72;10500875;28;20052;-80
2022/11/30 01:27:36;;;;;;;66.20;26.35;;;;;;;6.22;88.88;100959.22;10484582;28;20072;-80
2022/11/30 01:32:39;;;;;;;72.88;28.88;;;;;;;6.24;89.34;100967.16;10496341;28;20045;-79
2022/11/30 01:37:42;;;;;;;83.28;31.55;;;;;;;6.34;89.21;100971.94;10471044;28;20044;-80
2022/11/30 01:42:47;;;;;;;79.13;30.05;;;;;;;6.14;88.91;100966.78;10452513;28;20049;-79
2022/11/30 01:47:56;;;;;;;76.72;30.55;;;;;;;6.34;89.58;100976.41;10473010;28;20048;-79
2022/11/30 01:52:59;;;;;;;87.03;29.10;;;;;;;6.42;89.42;100967.97;10457286;28;20053;-78
2022/11/30 01:58:08;;;;;;;82.25;29.77;;;;;;;6.37;89.28;100981.56;10456678;28;20088;-79
2022/11/30 02:03:17;;;;;;;81.32;28.58;;;;;;;6.08;89.20;100975.13;10491476;28;20048;-77
2022/11/30 02:08:20;;;;;;;89.35;28.73;;;;;;;6.20;89.19;100985.16;10510952;28;20044;-78
2022/11/30 02:13:37;;;;;;;84.97;28.25;;;;;;;6.20;89.27;100985.16;10499619;28;20559;-78
2022/11/30 02:18:49;;;;;;;95.22;29.67;;;;;;;6.05;89.48;100985.94;10495229;28;20459;-79
2022/11/30 02:24:22;;;;;;;85.65;28.05;;;;;;;5.91;89.76;100990.19;10481596;28;20055;-78
2022/11/30 02:29:29;;;;;;;100.72;30.88;;;;;;;5.91;89.78;100984.00;10479415;28;20068;-80
2022/11/30 02:34:35;;;;;;;97.90;31.77;;;;;;;5.64;90.86;100976.47;10461647;28;20571;-79
2022/11/30 02:39:38;;;;;;;99.97;30.05;;;;;;;6.04;89.78;100979.75;10468823;28;20090;-78
2022/11/30 02:44:45;;;;;;;99.32;31.25;;;;;;;6.08;89.71;100981.31;10473207;28;20045;-79
2022/11/30 02:49:53;;;;;;;100.07;31.08;;;;;;;6.06;89.41;100982.34;10467844;28;20061;-78
2022/11/30 02:54:59;;;;;;;103.63;31.23;;;;;;;5.55;90.74;100992.09;10413876;28;20068;-79
2022/11/30 03:00:09;;;;;;;90.15;29.20;;;;;;;5.61;90.20;100979.31;10461205;28;20087;-79
2022/11/30 03:05:12;;;;;;;83.72;28.17;;;;;;;5.69;89.98;100986.91;10401897;28;20041;-78
2022/11/30 03:10:15;;;;;;;82.65;27.33;;;;;;;5.72;89.94;100990.28;10446745;28;20076;-79
2022/11/30 03:15:19;;;;;;;78.82;26.08;;;;;;;5.89;89.90;100994.75;10464367;28;20158;-81
2022/11/30 03:20:22;;;;;;;79.90;27.80;;;;;;;5.90;89.50;100991.16;10496940;28;20409;-80
2022/11/30 03:25:25;;;;;;;68.80;24.65;;;;;;;5.67;90.13;101002.97;10458023;28;20079;-81
2022/11/30 03:30:29;;;;;;;68.95;23.75;;;;;;;5.66;90.08;100997.75;10433093;28;20136;-83
2022/11/30 03:35:32;;;;;;;77.25;24.92;;;;;;;5.74;89.85;100998.22;10477151;28;20094;-82
2022/11/30 03:40:36;;;;;;;68.40;21.35;;;;;;;5.57;90.44;101004.41;10456577;28;20047;-80
2022/11/30 03:45:40;;;;;;;72.32;24.67;;;;;;;5.86;90.00;101005.56;10468620;28;20064;-78
2022/11/30 03:50:48;;;;;;;73.97;23.83;;;;;;;5.75;89.98;100996.41;10465930;28;20082;-79
2022/11/30 03:55:55;;;;;;;73.75;22.80;;;;;;;5.86;89.98;101005.56;10495190;28;20072;-79
2022/11/30 04:01:01;;;;;;;63.58;22.63;;;;;;;5.80;89.98;101011.22;10489155;28;20048;-78
2022/11/30 04:06:05;;;;;;;79.75;22.73;;;;;;;5.79;89.75;101013.97;10497267;28;20028;-80
2022/11/30 04:11:09;;;;;;;68.70;22.20;;;;;;;5.87;90.00;101007.31;10458542;28;20044;-79
2022/11/30 04:16:13;;;;;;;71.80;23.65;;;;;;;5.66;90.18;101019.06;10486870;28;20049;-78
2022/11/30 04:21:17;;;;;;;68.93;22.15;;;;;;;5.94;90.11;101013.19;10446655;28;20077;-81
2022/11/30 04:26:19;;;;;;;70.32;23.50;;;;;;;5.95;90.06;101013.13;10497670;28;20505;-81
2022/11/30 04:31:24;;;;;;;60.25;21.75;;;;;;;5.98;89.86;101013.88;10489784;28;20079;-80
2022/11/30 04:36:27;;;;;;;67.53;19.00;;;;;;;5.87;89.71;101017.09;10495876;28;20391;-80
2022/11/30 04:41:29;;;;;;;55.13;18.50;;;;;;;5.90;89.77;101014.28;10478916;28;20044;-80
2022/11/30 04:46:34;;;;;;;65.38;19.83;;;;;;;6.02;89.90;101013.66;10469134;28;20082;-81
2022/11/30 04:51:36;;;;;;;69.53;19.15;;;;;;;6.10;90.00;101019.44;10503849;28;20048;-80
2022/11/30 04:56:39;;;;;;;43.85;18.20;;;;;;;6.02;90.27;101020.78;10487186;28;20037;-79
2022/11/30 05:01:43;;;;;;;35.70;15.40;;;;;;;6.07;90.09;101026.75;10487871;28;20569;-80
2022/11/30 05:06:46;;;;;;;28.48;11.40;;;;;;;6.05;89.98;101021.47;10469958;28;20053;-79
2022/11/30 05:11:49;;;;;;;29.38;11.52;;;;;;;6.02;89.98;101021.66;10504982;28;20064;-79
2022/11/30 05:16:53;;;;;;;22.30;10.63;;;;;;;6.01;89.77;101029.75;10485131;28;20053;-78
2022/11/30 05:21:56;;;;;;;23.55;10.80;;;;;;;6.02;90.09;101034.97;10495582;28;20056;-79
2022/11/30 05:26:59;;;;;;;18.38;10.60;;;;;;;6.02;90.11;101042.97;10492895;28;20072;-81
2022/11/30 05:32:04;;;;;;;25.25;11.05;;;;;;;6.02;89.98;101039.47;10469220;28;20045;-80
2022/11/30 05:37:06;;;;;;;20.10;10.57;;;;;;;5.97;90.15;101045.03;10494949;28;20083;-80
2022/11/30 05:42:09;;;;;;;22.98;10.90;;;;;;;5.98;89.71;101049.44;10463883;28;20072;-81
2022/11/30 05:47:14;;;;;;;22.25;10.93;;;;;;;5.98;89.92;101048.53;10488506;28;20048;-78
2022/11/30 05:52:17;;;;;;;27.15;11.00;;;;;;;6.00;90.12;101050.19;10484414;28;20546;-80
2022/11/30 05:57:20;;;;;;;22.13;10.60;;;;;;;5.87;89.84;101065.97;10453872;28;20091;-81
2022/11/30 06:02:24;;;;;;;29.67;12.23;;;;;;;5.91;89.91;101067.53;10477082;28;20498;-80
2022/11/30 06:07:30;;;;;;;26.23;11.05;;;;;;;5.93;90.18;101060.31;10478915;28;20071;-80
2022/11/30 06:12:33;;;;;;;20.13;10.77;;;;;;;5.91;90.25;101064.00;10436611;28;20097;-79
2022/11/30 06:17:37;;;;;;;25.08;12.48;;;;;;;5.94;90.05;101064.72;10471732;28;20036;-79
2022/11/30 06:22:40;;;;;;;24.00;11.95;;;;;;;5.98;89.96;101061.88;10456990;28;20076;-79
2022/11/30 06:27:43;;;;;;;22.67;11.40;;;;;;;5.96;90.05;101072.66;10472490;28;20107;-78
2022/11/30 06:32:48;;;;;;;24.48;10.75;;;;;;;5.84;90.02;101082.13;10451715;28;20468;-81
2022/11/30 06:37:51;;;;;;;23.00;11.20;;;;;;;5.93;90.19;101079.00;10502012;28;20068;-80
2022/11/30 06:42:54;;;;;;;18.30;10.68;;;;;;;5.94;89.94;101083.38;10499874;28;20092;-80
2022/11/30 06:47:58;;;;;;;17.65;9.75;;;;;;;5.95;90.05;101090.47;10493644;28;20468;-78
2022/11/30 06:53:01;;;;;;;17.60;8.93;;;;;;;5.90;89.81;101100.47;10434237;28;20053;-80
2022/11/30 06:58:06;;;;;;;18.38;9.93;;;;;;;5.88;90.06;101101.50;10473651;28;20044;-78
2022/11/30 07:03:11;;;;;;;17.90;10.40;;;;;;;5.92;90.12;101111.06;10449542;28;20139;-79
2022/11/30 07:08:16;;;;;;;15.45;9.20;;;;;;;5.90;90.18;101111.16;10472888;28;20067;-79
2022/11/30 07:13:19;;;;;;;17.10;9.15;;;;;;;5.92;90.16;101116.41;10443390;28;20136;-78
2022/11/30 07:18:23;;;;;;;15.93;9.27;;;;;;;5.94;90.14;101102.03;10498191;28;20051;-80
2022/11/30 07:28:58;;;;;;;19.95;10.77;;;;;;;5.93;90.20;101115.47;10470897;28;20040;-81
2022/11/30 07:34:06;;;;;;;16.63;10.80;;;;;;;5.90;89.89;101116.50;10464793;28;20045;-78
2022/11/30 07:39:08;;;;;;;19.45;10.50;;;;;;;5.86;90.17;101122.91;10470947;28;20123;-79
2022/11/30 07:44:11;;;;;;;13.85;7.65;;;;;;;6.03;90.77;101129.19;10482930;28;20049;-79
2022/11/30 07:49:15;;;;;;;22.67;12.68;;;;;;;6.16;89.99;101130.31;10494689;28;20040;-80
2022/11/30 07:54:18;;;;;;;9.48;6.20;;;;;;;6.27;90.50;101133.28;10474254;28;20402;-80
2022/11/30 07:59:21;;;;;;;6.97;5.63;;;;;;;6.39;90.24;101138.00;10471681;28;20106;-81
2022/11/30 08:04:25;;;;;;;9.27;6.57;;;;;;;6.45;90.35;101142.16;10485708;28;20116;-80
2022/11/30 08:09:28;;;;;;;9.50;6.80;;;;;;;6.47;89.76;101147.41;10500283;28;20486;-78
2022/11/30 08:14:31;;;;;;;22.00;9.07;;;;;;;6.37;90.02;101149.72;10475793;28;20068;-79
2022/11/30 08:19:55;;;;;;;;;;;;;;;6.22;89.75;101150.47;10481402;28;20047;-78
2022/11/30 08:24:58;;;;;;;41.97;17.25;;;;;;;6.21;90.07;101149.63;10487702;28;19947;-78
2022/11/30 08:30:01;;;;;;;46.42;20.50;;;;;;;6.13;89.78;101151.81;10477300;28;20046;-78
2022/11/30 08:35:06;;;;;;;48.08;20.40;;;;;;;6.12;90.11;101156.28;10481693;28;20387;-79
2022/11/30 08:40:10;;;;;;;35.35;18.83;;;;;;;6.15;90.35;101156.13;10466027;28;20823;-80
2022/11/30 08:45:13;;;;;;;42.85;20.67;;;;;;;6.21;90.49;101164.75;10463391;28;20132;-80
2022/11/30 08:50:17;;;;;;;40.45;19.35;;;;;;;6.25;90.44;101174.31;10433142;28;20041;-80
2022/11/30 08:55:20;;;;;;;44.03;20.17;;;;;;;6.24;90.11;101176.13;10426247;28;20041;-78
2022/11/30 09:00:23;;;;;;;50.70;19.80;;;;;;;6.25;90.34;101177.84;10444652;28;20091;-77
2022/11/30 09:05:27;;;;;;;43.58;20.95;;;;;;;6.24;90.41;101191.28;10445384;28;21687;-78
2022/11/30 09:10:30;;;;;;;68.63;23.17;;;;;;;6.21;89.64;101186.97;10432404;28;20052;-78
2022/11/30 09:15:33;;;;;;;58.92;23.42;;;;;;;6.20;89.97;101184.38;10419924;28;20048;-79
2022/11/30 09:20:37;;;;;;;54.22;22.33;;;;;;;6.18;90.09;101192.47;10414495;28;20047;-78
2022/11/30 09:25:40;;;;;;;59.97;23.65;;;;;;;6.22;90.27;101201.16;10429931;28;20059;-79
2022/11/30 09:30:42;;;;;;;44.50;21.55;;;;;;;6.22;90.29;101209.16;10430279;28;20522;-80
2022/11/30 09:35:55;;;;;;;55.47;28.08;;;;;;;6.24;90.23;101202.81;10451182;28;20044;-80
2022/11/30 09:40:59;;;;;;;50.53;24.08;;;;;;;6.18;90.05;101203.13;10451646;28;20048;-80
2022/11/30 09:46:06;;;;;;;51.90;24.73;;;;;;;6.20;90.11;101200.38;10450396;28;20080;-81
2022/11/30 09:51:14;;;;;;;53.47;25.70;;;;;;;6.20;89.97;101205.72;10437017;28;20174;-80
2022/11/30 09:56:23;;;;;;;51.97;26.73;;;;;;;6.21;89.94;101202.13;10436548;28;20057;-80
2022/11/30 10:01:26;;;;;;;51.05;25.65;;;;;;;6.21;90.07;101202.97;10442292;28;20045;-79
2022/11/30 10:06:44;;;;;;;54.88;25.23;;;;;;;6.26;89.97;101208.09;10413874;28;20049;-79
2022/11/30 10:11:56;;;;;;;51.38;23.90;;;;;;;6.22;89.91;101203.84;10434800;28;20155;-79
2022/11/30 10:17:09;;;;;;;49.47;21.33;;;;;;;6.20;89.83;101197.69;10422354;28;20059;-79
2022/11/30 10:22:25;;;;;;;44.83;23.08;;;;;;;6.19;89.66;101202.19;10463936;28;20082;-79
2022/11/30 10:27:40;;;;;;;54.05;24.63;;;;;;;6.11;88.93;101207.88;10444993;28;20060;-79
2022/11/30 10:32:48;;;;;;;48.15;23.88;;;;;;;6.08;89.65;101212.53;10444461;28;20048;-79
2022/11/30 10:37:53;;;;;;;48.47;23.25;;;;;;;6.12;89.46;101200.78;10437421;28;20516;-80
2022/11/30 10:43:04;;;;;;;50.55;25.42;;;;;;;6.13;89.64;101203.34;10445866;28;20055;-79
2022/11/30 10:48:13;;;;;;;47.10;22.95;;;;;;;6.10;89.31;101206.16;10431041;28;20043;-78
2022/11/30 10:53:17;;;;;;;53.83;25.88;;;;;;;6.12;89.04;101198.97;10429137;28;20052;-78
2022/11/30 10:58:26;;;;;;;53.30;25.70;;;;;;;6.12;88.83;101195.44;10453581;28;20044;-79
2022/11/30 11:03:29;;;;;;;53.88;27.63;;;;;;;6.13;89.06;101206.03;10436421;28;20127;-80
2022/11/30 11:08:34;;;;;;;52.97;26.33;;;;;;;6.01;88.25;101201.31;10423064;28;20044;-79
2022/11/30 11:13:39;;;;;;;48.88;27.50;;;;;;;5.94;88.31;101198.06;10433941;28;20045;-79
2022/11/30 11:18:53;;;;;;;52.47;27.65;;;;;;;6.03;88.62;101202.06;10413280;28;20052;-79
2022/11/30 11:23:58;;;;;;;46.72;25.17;;;;;;;6.04;88.32;101206.47;10420617;28;20127;-79
2022/11/30 11:29:01;;;;;;;52.88;25.55;;;;;;;6.03;87.75;101209.22;10426957;28;20049;-79
2022/11/30 11:34:07;;;;;;;51.67;26.55;;;;;;;6.07;88.36;101205.47;10455613;28;20167;-79
2022/11/30 11:39:25;;;;;;;54.05;24.90;;;;;;;6.09;88.58;101212.47;10436317;28;20123;-80
2022/11/30 11:44:28;;;;;;;51.92;25.58;;;;;;;6.15;88.79;101211.28;10439497;28;20290;-80
2022/11/30 11:49:34;;;;;;;45.85;23.60;;;;;;;6.15;88.51;101209.47;10438530;28;20055;-80
2022/11/30 11:54:41;;;;;;;41.40;23.60;;;;;;;6.16;88.06;101211.19;10441537;28;20051;-79
2022/11/30 11:59:50;;;;;;;44.58;22.23;;;;;;;6.08;87.90;101202.72;10445863;28;20785;-80
2022/11/30 12:04:56;;;;;;;51.10;23.15;;;;;;;6.14;88.16;101212.22;10422584;28;20051;-79
2022/11/30 12:10:13;;;;;;;45.70;22.83;;;;;;;6.09;87.49;101217.78;10446337;28;20051;-80
2022/11/30 12:15:44;;;;;;;50.15;22.90;;;;;;;5.99;87.02;101215.66;10427737;28;20055;-80
2022/11/30 12:20:55;;;;;;;52.30;22.92;;;;;;;5.95;87.39;101222.91;10413025;28;20048;-80
2022/11/30 12:26:07;;;;;;;60.42;26.33;;;;;;;6.02;87.51;101224.34;10449465;28;20054;-80
2022/11/30 12:31:14;;;;;;;52.70;25.10;;;;;;;6.02;87.36;101235.03;10433383;28;20601;-80
2022/11/30 12:36:24;;;;;;;57.70;24.33;;;;;;;5.99;87.09;101221.84;10445962;28;20037;-80
2022/11/30 12:41:37;;;;;;;52.17;26.10;;;;;;;6.04;87.48;101237.63;10448046;28;20416;-80
2022/11/30 12:46:50;;;;;;;61.17;27.50;;;;;;;6.11;88.04;101225.72;10451442;28;20052;-80
2022/11/30 12:52:01;;;;;;;55.08;25.15;;;;;;;6.17;87.40;101234.28;10438613;28;20117;-80
2022/11/30 12:57:14;;;;;;;54.90;24.48;;;;;;;6.27;88.07;101232.00;10400820;28;20049;-80
2022/11/30 13:02:40;;;;;;;55.42;23.50;;;;;;;6.41;88.29;101226.00;10443444;28;20044;-80
2022/11/30 13:07:46;;;;;;;56.15;23.27;;;;;;;6.41;87.67;101231.31;10454297;28;20052;-79
2022/11/30 13:12:54;;;;;;;57.15;24.40;;;;;;;6.31;87.40;101233.59;10450561;28;20124;-80
2022/11/30 13:17:57;;;;;;;60.22;25.52;;;;;;;6.24;87.47;101237.50;10433221;28;20049;-80
2022/11/30 13:23:06;;;;;;;53.13;23.50;;;;;;;6.11;87.05;101239.91;10465220;28;20155;-79
2022/11/30 13:28:18;;;;;;;58.42;25.50;;;;;;;5.98;86.89;101248.56;10446812;28;20130;-80
2022/11/30 13:33:45;;;;;;;;;;;;;;;5.93;87.11;101243.47;10446937;28;20070;-80
2022/11/30 13:39:08;;;;;;;65.80;29.20;;;;;;;5.86;87.42;101255.38;10432327;28;20011;-80
2022/11/30 13:44:24;;;;;;;65.15;26.98;;;;;;;5.84;87.26;101251.91;10430501;28;20106;-80
2022/11/30 13:49:29;;;;;;;87.47;31.50;;;;;;;5.80;87.49;101255.66;10420441;28;20052;-80
2022/11/30 13:54:40;;;;;;;81.10;28.30;;;;;;;5.76;87.41;101251.41;10449772;28;20537;-79
2022/11/30 13:59:52;;;;;;;76.78;31.15;;;;;;;5.70;87.48;101252.56;10420653;28;20052;-80
2022/11/30 14:05:24;;;;;;;76.15;29.17;;;;;;;5.61;87.12;101255.66;10451344;28;20132;-80
2022/11/30 14:10:29;;;;;;;79.43;29.73;;;;;;;5.65;87.62;101257.22;10444810;28;20098;-80
2022/11/30 14:15:55;;;;;;;77.30;30.48;;;;;;;5.60;87.53;101265.47;10443002;28;20182;-80
2022/11/30 14:21:01;;;;;;;73.82;29.25;;;;;;;5.55;87.43;101256.81;10431106;28;20072;-79
2022/11/30 14:26:08;;;;;;;73.15;28.65;;;;;;;5.55;87.79;101263.94;10487698;28;20040;-79
2022/11/30 14:31:17;;;;;;;73.53;29.77;;;;;;;5.59;87.91;101273.50;10484453;28;20068;-79
2022/11/30 14:36:21;;;;;;;73.30;28.00;;;;;;;5.58;87.90;101267.31;10431760;28;20123;-80
2022/11/30 14:41:27;;;;;;;71.15;29.38;;;;;;;5.56;87.87;101271.84;10443897;28;20734;-79
2022/11/30 14:46:34;;;;;;;69.13;28.35;;;;;;;5.58;88.17;101278.00;10441416;28;20102;-79
2022/11/30 14:51:38;;;;;;;75.43;27.90;;;;;;;5.56;87.68;101285.19;10417966;28;20087;-79
2022/11/30 14:56:46;;;;;;;71.90;26.92;;;;;;;5.57;88.21;101281.59;10444019;28;20085;-79
2022/11/30 15:01:55;;;;;;;66.43;26.77;;;;;;;5.56;87.97;101281.66;10436740;28;21161;-79
2022/11/30 15:06:59;;;;;;;66.50;28.10;;;;;;;5.45;87.86;101282.13;10441844;28;20431;-79
2022/11/30 15:12:02;;;;;;;64.93;24.67;;;;;;;5.48;88.14;101292.66;10450234;28;20049;-80
2022/11/30 15:17:14;;;;;;;60.90;25.98;;;;;;;5.47;87.92;101291.81;10449842;28;20059;-79
2022/11/30 15:22:21;;;;;;;65.75;26.75;;;;;;;5.47;88.30;101297.13;10426805;28;20051;-79
2022/11/30 15:27:24;;;;;;;62.97;26.95;;;;;;;5.49;88.25;101295.28;10431110;28;20053;-79
2022/11/30 15:32:28;;;;;;;64.07;26.85;;;;;;;5.50;88.24;101299.66;10431265;28;20045;-79
2022/11/30 15:37:36;;;;;;;68.47;28.17;;;;;;;5.50;88.23;101296.13;10453591;28;20045;-79
2022/11/30 15:42:40;;;;;;;66.35;30.42;;;;;;;5.53;88.46;101305.78;10452336;28;20680;-79
2022/11/30 15:47:44;;;;;;;70.45;28.45;;;;;;;5.55;88.57;101311.91;10416874;28;20052;-79
2022/11/30 15:52:49;;;;;;;74.15;28.65;;;;;;;5.52;88.29;101309.41;10432962;28;20675;-79
2022/11/30 15:58:01;;;;;;;70.07;28.67;;;;;;;5.49;88.09;101310.41;10413756;28;20060;-79
2022/11/30 16:03:09;;;;;;;75.15;29.13;;;;;;;5.48;88.49;101313.97;10424662;28;20062;-80
2022/11/30 16:08:17;;;;;;;78.38;32.38;;;;;;;5.45;88.16;101312.31;10446698;28;20063;-79
2022/11/30 16:13:22;;;;;;;77.45;31.17;;;;;;;5.37;88.01;101322.44;10451027;28;20504;-78
2022/11/30 16:18:28;;;;;;;86.53;32.90;;;;;;;5.40;88.54;101318.78;10447474;28;20048;-79
2022/11/30 16:23:34;;;;;;;94.78;33.83;;;;;;;5.44;88.45;101323.91;10436850;28;20402;-78
2022/11/30 16:28:37;;;;;;;104.95;36.60;;;;;;;5.42;88.44;101331.09;10432314;28;20055;-79
2022/11/30 16:33:41;;;;;;;114.03;37.63;;;;;;;5.35;88.49;101329.66;10414427;28;20499;-79
2022/11/30 16:38:47;;;;;;;120.28;37.92;;;;;;;5.28;88.21;101334.38;10421219;28;20049;-80
2022/11/30 16:43:51;;;;;;;124.00;39.08;;;;;;;5.30;88.45;101334.34;10414412;28;20052;-79
2022/11/30 16:48:56;;;;;;;132.32;37.97;;;;;;;5.31;88.53;101330.72;10428969;28;20053;-79
2022/11/30 16:53:59;;;;;;;120.68;36.72;;;;;;;5.28;87.99;101329.06;10414915;28;20053;-80
2022/11/30 16:59:01;;;;;;;111.55;34.03;;;;;;;5.25;88.19;101341.66;10425597;28;20049;-79
2022/11/30 17:04:11;;;;;;;108.45;35.22;;;;;;;5.25;88.37;101341.66;10402639;28;20514;-79
2022/11/30 17:09:16;;;;;;;117.10;34.80;;;;;;;5.23;88.50;101346.19;10418034;28;20052;-79
2022/11/30 17:14:20;;;;;;;113.30;35.03;;;;;;;5.22;88.30;101353.31;10409748;28;20045;-79
2022/11/30 17:19:24;;;;;;;101.45;33.30;;;;;;;5.27;88.63;101358.44;10405981;28;20048;-79
2022/11/30 17:24:27;;;;;;;105.82;33.80;;;;;;;5.28;88.66;101354.84;10418493;28;20053;-79
2022/11/30 17:29:29;;;;;;;109.63;33.83;;;;;;;5.28;88.50;101365.50;10440467;28;20049;-79
2022/11/30 17:34:34;;;;;;;113.82;36.67;;;;;;;5.24;88.56;101362.13;10428185;28;21071;-79
2022/11/30 17:39:36;;;;;;;108.28;35.38;;;;;;;5.26;88.58;101373.53;10454401;28;20055;-79
2022/11/30 17:44:39;;;;;;;115.60;34.25;;;;;;;5.30;88.83;101373.44;10422124;28;20051;-79
2022/11/30 17:49:43;;;;;;;125.65;36.53;;;;;;;5.34;88.81;101380.34;10405721;28;20046;-79
2022/11/30 17:54:46;;;;;;;134.15;37.55;;;;;;;5.31;88.50;101381.34;10425648;28;20470;-79
2022/11/30 17:59:49;;;;;;;142.32;37.60;;;;;;;5.25;88.40;101387.81;10454162;28;20049;-79
2022/11/30 18:04:54;;;;;;;135.35;38.47;;;;;;;5.24;88.30;101388.75;10457107;28;20119;-80
2022/11/30 18:09:57;;;;;;;153.85;40.15;;;;;;;5.26;88.88;101386.88;10447576;28;20056;-79
2022/11/30 18:15:00;;;;;;;141.02;39.25;;;;;;;5.28;88.71;101390.34;10433704;28;20167;-79
2022/11/30 18:20:06;;;;;;;144.30;39.28;;;;;;;5.33;88.67;101399.94;10429739;28;20037;-79
2022/11/30 18:25:09;;;;;;;146.88;39.92;;;;;;;5.30;88.46;101398.28;10415899;28;20521;-79
2022/11/30 18:30:12;;;;;;;118.45;37.17;;;;;;;5.27;88.71;101396.59;10399833;28;20435;-80
2022/11/30 18:35:16;;;;;;;130.38;35.70;;;;;;;5.30;88.60;101410.75;10430847;28;20048;-80
2022/11/30 18:40:19;;;;;;;122.35;38.63;;;;;;;5.32;88.51;101409.75;10444118;28;20044;-79
2022/11/30 18:45:22;;;;;;;126.28;37.15;;;;;;;5.33;88.41;101415.94;10419723;28;20053;-80
2022/11/30 18:50:27;;;;;;;119.13;35.40;;;;;;;5.30;88.59;101414.25;10427350;28;20056;-78
2022/11/30 18:55:30;;;;;;;120.05;35.75;;;;;;;5.32;88.60;101422.16;10447921;28;20055;-79
2022/11/30 19:00:33;;;;;;;179.60;40.35;;;;;;;5.30;88.58;101432.06;10447952;28;20050;-79
2022/11/30 19:05:38;;;;;;;134.15;39.67;;;;;;;5.30;88.71;101424.91;10401286;28;20714;-80
2022/11/30 19:10:41;;;;;;;139.20;41.17;;;;;;;5.26;88.54;101423.31;10443030;28;20047;-79
2022/11/30 19:15:44;;;;;;;131.95;38.78;;;;;;;5.31;88.72;101429.31;10415923;28;20052;-78
2022/11/30 19:20:49;;;;;;;132.65;35.38;;;;;;;5.26;88.41;101432.16;10402953;28;20060;-78
2022/11/30 19:25:52;;;;;;;119.07;36.53;;;;;;;5.24;88.37;101426.06;10411399;28;20048;-78
2022/11/30 19:30:54;;;;;;;105.13;35.55;;;;;;;5.17;87.88;101426.38;10420512;28;20134;-79
2022/11/30 19:36:01;;;;;;;99.00;32.35;;;;;;;5.18;88.17;101433.41;10419397;28;20056;-79
2022/11/30 19:41:05;;;;;;;85.93;31.52;;;;;;;5.19;88.23;101443.16;10371770;28;20052;-79
2022/11/30 19:46:11;;;;;;;85.03;28.65;;;;;;;5.16;87.94;101438.81;10438963;28;20094;-78
2022/11/30 19:51:16;;;;;;;79.57;29.98;;;;;;;5.19;88.27;101448.50;10434876;28;20140;-79
2022/11/30 19:56:20;;;;;;;86.50;29.05;;;;;;;5.06;87.64;101450.78;10435768;28;20052;-80
2022/11/30 20:01:24;;;;;;;79.68;29.63;;;;;;;5.05;87.87;101449.06;10403117;28;20131;-78
2022/11/30 20:06:31;;;;;;;84.20;29.23;;;;;;;5.07;87.93;101447.19;10419623;28;20056;-78
2022/11/30 20:11:34;;;;;;;94.22;28.95;;;;;;;5.09;88.17;101455.97;10415198;28;20099;-78
2022/11/30 20:16:37;;;;;;;91.47;30.20;;;;;;;5.14;88.13;101451.34;10429132;28;20063;-77
2022/11/30 20:21:41;;;;;;;78.15;29.08;;;;;;;5.16;87.98;101453.94;10417610;28;20048;-77
2022/11/30 20:26:44;;;;;;;76.85;27.33;;;;;;;5.10;87.79;101462.16;10421911;28;20093;-77
2022/11/30 20:31:48;;;;;;;79.22;26.85;;;;;;;5.08;87.73;101459.59;10431668;28;20048;-78
2022/11/30 20:36:52;;;;;;;79.13;28.67;;;;;;;5.13;88.18;101462.94;10418095;28;20079;-78
2022/11/30 20:41:55;;;;;;;76.22;28.60;;;;;;;5.08;87.84;101458.72;10417723;28;20672;-78
2022/11/30 20:46:58;;;;;;;71.43;26.48;;;;;;;5.07;87.82;101460.50;10421102;28;20056;-77
2022/11/30 20:52:02;;;;;;;75.97;26.75;;;;;;;5.06;87.73;101466.75;10422031;28;20041;-78
2022/11/30 20:57:05;;;;;;;80.25;28.63;;;;;;;5.08;87.92;101466.72;10402939;28;20123;-78
2022/11/30 21:02:09;;;;;;;85.00;29.58;;;;;;;4.94;87.69;101459.25;10395125;28;20045;-79
2022/11/30 21:07:14;;;;;;;83.35;28.77;;;;;;;5.05;87.78;101459.72;10435239;28;20065;-79
2022/11/30 21:12:17;;;;;;;76.75;28.17;;;;;;;5.06;87.69;101467.63;10422377;28;20045;-79
2022/11/30 21:17:19;;;;;;;77.82;25.92;;;;;;;5.05;87.79;101463.22;10418351;28;20050;-80
2022/11/30 21:22:25;;;;;;;78.45;26.83;;;;;;;5.08;88.07;101470.25;10421201;28;20049;-79
2022/11/30 21:27:28;;;;;;;82.10;27.33;;;;;;;5.14;87.91;101474.44;10422191;28;20049;-78
2022/11/30 21:32:30;;;;;;;79.80;26.17;;;;;;;5.12;87.35;101471.81;10456452;28;20059;-78
2022/11/30 21:37:35;;;;;;;78.70;28.88;;;;;;;5.10;88.05;101472.81;10453265;28;20052;-78
2022/11/30 21:42:38;;;;;;;72.85;27.55;;;;;;;5.06;87.89;101469.44;10435424;28;20056;-78
2022/11/30 21:47:40;;;;;;;69.72;26.13;;;;;;;5.02;87.67;101475.81;10423957;28;20495;-78
2022/11/30 21:52:45;;;;;;;73.75;26.95;;;;;;;4.97;87.87;101469.78;10421522;28;20057;-78
2022/11/30 21:57:47;;;;;;;71.82;27.08;;;;;;;5.03;88.09;101465.09;10418760;28;20121;-79
2022/11/30 22:02:50;;;;;;;71.07;25.33;;;;;;;5.05;88.06;101473.88;10453378;28;20112;-78
2022/11/30 22:07:54;;;;;;;67.15;25.90;;;;;;;5.09;88.07;101468.44;10505174;28;20056;-80
2022/11/30 22:12:57;;;;;;;76.85;25.50;;;;;;;5.10;88.33;101472.81;10523737;28;20048;-79
2022/11/30 22:18:00;;;;;;;83.38;27.25;;;;;;;5.08;88.02;101472.03;10504504;28;20071;-79
2022/11/30 22:23:04;;;;;;;71.85;26.98;;;;;;;5.06;88.15;101475.63;10460260;28;20072;-79
2022/11/30 22:28:07;;;;;;;65.18;25.52;;;;;;;5.04;88.19;101474.78;10450051;28;20154;-78
2022/11/30 22:33:10;;;;;;;59.55;22.23;;;;;;;5.07;88.20;101476.47;10463187;28;20100;-80
2022/11/30 22:38:15;;;;;;;59.67;23.27;;;;;;;5.09;88.27;101468.44;10469225;28;20119;-78
2022/11/30 22:43:18;;;;;;;48.25;21.08;;;;;;;5.04;87.88;101471.28;10484740;28;20049;-79
2022/11/30 22:48:21;;;;;;;46.15;19.48;;;;;;;4.96;87.82;101466.22;10473806;28;20047;-79
2022/11/30 22:53:25;;;;;;;52.72;20.90;;;;;;;5.00;88.32;101470.53;10471883;28;20135;-79
2022/11/30 22:58:28;;;;;;;48.08;21.05;;;;;;;4.99;87.55;101479.47;10481681;28;20115;-79
2022/11/30 23:03:30;;;;;;;41.08;19.40;;;;;;;5.03;88.27;101472.22;10463995;28;20052;-76
2022/11/30 23:08:35;;;;;;;49.10;20.48;;;;;;;5.01;87.87;101480.25;10472379;28;20071;-77
2022/11/30 23:13:40;;;;;;;55.70;23.00;;;;;;;4.97;87.87;101467.13;10470490;28;20041;-77